Time;durP1;ratioP1;P1;durP2;ratioP2;P2;SDS_P1;SDS_P2;PMS_P1;PMS_P2;Temp;Humidity;BMP_temperature;BMP_pressure;BME280_temperature;BME280_humidity;BME280_pressure;Samples;Min_cycle;Max_cycle;Signal;HPM_P1;HPM_P2
2021/01/19 00:01:35;;;;;;;42.88;20.80;;;;;;;1.85;58.32;100530.59;4476977;32;34191;-81
2021/01/19 00:04:03;;;;;;;39.30;20.08;;;;;;;1.70;58.92;100523.59;4487309;32;33014;-81
2021/01/19 00:06:30;;;;;;;37.88;20.27;;;;;;;1.86;58.50;100529.75;4476918;32;33339;-81
2021/01/19 00:08:58;;;;;;;44.50;21.98;;;;;;;1.83;58.42;100527.12;4473201;32;33454;-81
2021/01/19 00:11:25;;;;;;;39.63;19.60;;;;;;;1.45;59.85;100527.84;4460875;32;34315;-81
2021/01/19 00:13:53;;;;;;;41.85;20.90;;;;;;;1.51;59.79;100529.59;4468577;32;33645;-82
2021/01/19 00:16:20;;;;;;;41.20;21.62;;;;;;;1.60;59.71;100527.03;4460294;32;34963;-82
2021/01/19 00:18:47;;;;;;;54.28;28.20;;;;;;;1.47;60.33;100539.16;4477674;32;33872;-82
2021/01/19 00:21:14;;;;;;;44.75;20.40;;;;;;;1.61;59.83;100528.78;4456236;32;34237;-82
2021/01/19 00:23:42;;;;;;;48.20;24.40;;;;;;;1.54;59.64;100527.88;4481146;32;32912;-82
2021/01/19 00:26:10;;;;;;;64.22;29.95;;;;;;;1.62;59.56;100519.25;4476885;32;33956;-82
2021/01/19 00:28:37;;;;;;;45.50;24.35;;;;;;;1.67;59.32;100521.00;4484516;32;33463;-82
2021/01/19 00:31:05;;;;;;;46.30;22.90;;;;;;;1.64;59.59;100513.19;4472776;32;33996;-83
2021/01/19 00:33:33;;;;;;;45.05;22.83;;;;;;;1.59;59.86;100524.44;4483195;32;33169;-82
2021/01/19 00:36:02;;;;;;;44.33;23.87;;;;;;;1.66;59.71;100507.97;4482461;32;34372;-83
2021/01/19 00:38:29;;;;;;;48.30;23.38;;;;;;;1.72;59.25;100519.28;4487892;32;33643;-83
2021/01/19 00:40:56;;;;;;;46.05;22.85;;;;;;;1.72;59.08;100516.69;4473848;31;33520;-82
2021/01/19 00:43:23;;;;;;;37.90;20.40;;;;;;;1.89;58.66;100518.47;4469947;32;33225;-83
2021/01/19 00:45:51;;;;;;;47.55;22.85;;;;;;;2.02;58.19;100518.50;4459548;32;35499;-82
2021/01/19 00:48:18;;;;;;;41.33;21.20;;;;;;;1.92;58.54;100515.88;4486168;32;33702;-82
2021/01/19 00:50:45;;;;;;;43.05;22.77;;;;;;;2.13;57.92;100523.72;4469886;32;33928;-82
2021/01/19 00:53:13;;;;;;;46.28;22.23;;;;;;;2.11;57.96;100532.44;4451874;32;33940;-82
2021/01/19 00:55:43;;;;;;;40.70;20.92;;;;;;;2.07;58.06;100523.72;4464562;32;33491;-82
2021/01/19 00:58:13;;;;;;;44.10;21.98;;;;;;;2.00;58.12;100517.66;4474733;32;34689;-83
2021/01/19 01:00:42;;;;;;;39.63;21.87;;;;;;;2.02;58.11;100521.13;4463142;32;34579;-82
2021/01/19 01:03:10;;;;;;;44.65;21.27;;;;;;;1.91;58.46;100519.34;4464704;32;34201;-82
2021/01/19 01:05:38;;;;;;;45.20;22.17;;;;;;;2.13;57.62;100518.53;4465265;32;34401;-82
2021/01/19 01:08:05;;;;;;;44.88;20.60;;;;;;;2.37;56.72;100516.81;4463506;32;33459;-82
2021/01/19 01:10:32;;;;;;;42.65;22.48;;;;;;;2.23;57.09;100514.19;4457752;32;33509;-82
2021/01/19 01:13:00;;;;;;;38.42;21.25;;;;;;;1.94;57.98;100511.53;4460636;32;34228;-83
2021/01/19 01:15:31;;;;;;;39.28;20.75;;;;;;;1.65;59.12;100514.91;4463282;32;33583;-82
2021/01/19 01:17:59;;;;;;;43.08;19.60;;;;;;;1.62;59.16;100514.91;4464841;32;34016;-83
2021/01/19 01:20:26;;;;;;;41.80;20.90;;;;;;;1.72;58.92;100511.47;4468225;32;34529;-83
2021/01/19 01:22:54;;;;;;;37.72;20.65;;;;;;;1.72;58.91;100508.88;4465191;32;34415;-83
2021/01/19 01:25:21;;;;;;;44.25;21.55;;;;;;;1.82;58.55;100517.59;4461125;32;33577;-82
2021/01/19 01:27:49;;;;;;;41.58;20.98;;;;;;;1.91;58.27;100512.41;4460701;32;33353;-81
2021/01/19 01:30:17;;;;;;;42.88;21.00;;;;;;;1.96;58.12;100504.63;4461241;32;34327;-82
2021/01/19 01:32:51;;;;;;;41.03;21.67;;;;;;;1.86;58.53;100503.72;4467255;32;34581;-81
2021/01/19 01:35:20;;;;;;;42.08;22.05;;;;;;;1.88;58.58;100511.53;4462166;32;33166;-82
2021/01/19 01:37:49;;;;;;;42.65;22.85;;;;;;;1.81;58.92;100513.25;4462310;32;34615;-81
2021/01/19 01:40:18;;;;;;;44.05;22.58;;;;;;;1.92;58.69;100508.06;4462166;32;34410;-83
2021/01/19 01:42:51;;;;;;;46.45;23.48;;;;;;;2.05;58.19;100500.28;4462058;32;35062;-82
2021/01/19 01:45:20;;;;;;;41.88;22.58;;;;;;;2.02;58.13;100505.47;4468127;32;33623;-82
2021/01/19 01:47:52;;;;;;;44.35;21.92;;;;;;;1.89;58.32;100503.72;4461545;32;35489;-82
2021/01/19 01:50:21;;;;;;;46.67;23.10;;;;;;;1.94;58.15;100503.72;4461488;32;33595;-82
2021/01/19 01:52:48;;;;;;;44.83;23.08;;;;;;;1.91;58.31;100501.13;4477286;32;32982;-82
2021/01/19 01:55:16;;;;;;;42.62;22.37;;;;;;;1.98;58.21;100497.66;4462561;32;33662;-82
2021/01/19 01:57:43;;;;;;;47.95;22.80;;;;;;;1.94;58.55;100501.97;4475031;32;36054;-81
2021/01/19 02:00:12;;;;;;;43.65;22.27;;;;;;;1.95;58.70;100495.06;4476883;32;33244;-82
2021/01/19 02:02:53;;;;;;;44.10;22.05;;;;;;;1.85;58.87;100501.09;4475308;32;33880;-83
2021/01/19 02:05:21;;;;;;;45.00;22.73;;;;;;;1.93;58.80;100489.84;4450670;32;34133;-83
2021/01/19 02:08:09;;;;;;;40.92;22.67;;;;;;;1.72;59.50;100492.38;4450211;32;34811;-83
2021/01/19 02:10:52;;;;;;;41.63;21.30;;;;;;;1.63;59.79;100480.22;4474136;32;33616;-82
2021/01/19 02:13:29;;;;;;;42.85;21.95;;;;;;;1.75;59.48;100485.44;4461106;32;35014;-82
2021/01/19 02:16:07;;;;;;;47.72;23.48;;;;;;;1.61;60.13;100483.66;4457184;32;34623;-82
2021/01/19 02:19:07;;;;;;;47.42;23.58;;;;;;;1.68;60.03;100483.69;4463839;32;33436;-83
2021/01/19 02:21:55;;;;;;;40.80;23.02;;;;;;;1.68;59.96;100481.09;4428595;32;33715;-82
2021/01/19 02:24:35;;;;;;;41.80;21.73;;;;;;;1.79;59.43;100479.38;4461324;32;33296;-82
2021/01/19 02:27:11;;;;;;;41.80;22.90;;;;;;;1.92;59.01;100471.59;4459592;32;34755;-83
2021/01/19 02:30:06;;;;;;;40.17;21.70;;;;;;;1.81;59.35;100478.53;4461263;32;35373;-83
2021/01/19 02:32:57;;;;;;;40.20;20.45;;;;;;;1.87;59.48;100481.16;4475295;32;34081;-82
2021/01/19 02:35:27;;;;;;;41.80;22.23;;;;;;;1.99;59.02;100473.34;4475160;32;33251;-82
2021/01/19 02:38:10;;;;;;;43.87;20.90;;;;;;;1.53;60.65;100481.91;4460930;32;33367;-82
2021/01/19 02:40:38;;;;;;;43.20;21.35;;;;;;;1.63;60.83;100479.34;4462490;32;33716;-82
2021/01/19 02:43:20;;;;;;;41.22;20.98;;;;;;;1.68;60.92;100473.28;4461645;32;33311;-82
2021/01/19 02:45:48;;;;;;;45.67;21.45;;;;;;;1.92;60.21;100471.59;4463375;32;33152;-83
2021/01/19 02:48:16;;;;;;;43.15;21.60;;;;;;;1.84;60.72;100463.78;4445812;32;35385;-83
2021/01/19 02:50:43;;;;;;;42.38;21.27;;;;;;;1.68;61.32;100472.41;4454143;32;34687;-83
2021/01/19 02:53:12;;;;;;;44.75;22.62;;;;;;;1.65;61.79;100469.78;4472716;32;33272;-83
2021/01/19 02:55:41;;;;;;;51.58;23.40;;;;;;;1.81;61.41;100470.72;4460180;32;34090;-82
2021/01/19 02:58:16;;;;;;;43.22;21.42;;;;;;;1.88;61.20;100469.84;4466218;32;33652;-82
2021/01/19 03:00:56;;;;;;;45.03;21.23;;;;;;;1.79;61.48;100461.16;4463876;32;34247;-82
2021/01/19 03:03:25;;;;;;;43.42;22.23;;;;;;;1.84;61.47;100457.69;4462321;32;34328;-82
2021/01/19 03:05:53;;;;;;;47.42;23.35;;;;;;;1.84;61.37;100449.88;4476618;32;32996;-82
2021/01/19 03:08:22;;;;;;;45.17;22.73;;;;;;;2.07;60.44;100453.41;4460354;32;35105;-83
2021/01/19 03:10:50;;;;;;;47.25;22.37;;;;;;;2.22;59.78;100452.53;4458979;32;33792;-83
2021/01/19 03:13:18;;;;;;;42.95;21.40;;;;;;;2.29;59.50;100456.91;4465577;32;33940;-83
2021/01/19 03:15:45;;;;;;;44.05;22.58;;;;;;;2.11;60.25;100447.31;4456911;32;33996;-83
2021/01/19 03:18:12;;;;;;;40.60;22.15;;;;;;;2.02;60.84;100442.09;4451498;32;34046;-82
2021/01/19 03:20:40;;;;;;;44.35;21.35;;;;;;;1.92;61.23;100446.44;4466766;32;33735;-83
2021/01/19 03:23:07;;;;;;;44.55;21.45;;;;;;;2.12;60.72;100441.25;4459036;32;35326;-82
2021/01/19 03:25:34;;;;;;;40.55;21.27;;;;;;;2.11;61.00;100438.66;4451358;32;34925;-82
2021/01/19 03:28:02;;;;;;;48.17;22.95;;;;;;;2.29;60.45;100436.91;4459032;32;34545;-83
2021/01/19 03:30:29;;;;;;;40.65;22.48;;;;;;;2.25;60.83;100436.91;4459243;32;34782;-82
2021/01/19 03:32:57;;;;;;;46.15;22.62;;;;;;;2.01;61.92;100436.03;4456284;32;33620;-83
2021/01/19 03:35:25;;;;;;;42.30;21.05;;;;;;;1.86;62.66;100436.00;4461408;32;34239;-82
2021/01/19 03:37:52;;;;;;;48.15;22.10;;;;;;;1.79;63.09;100440.31;4461812;32;34408;-83
2021/01/19 03:40:19;;;;;;;46.20;22.85;;;;;;;1.84;63.09;100439.47;4474245;32;33764;-83
2021/01/19 03:42:47;;;;;;;40.58;22.75;;;;;;;1.90;62.82;100436.87;4463588;32;34916;-82
2021/01/19 03:45:14;;;;;;;46.42;24.17;;;;;;;1.98;62.88;100435.16;4472213;32;33607;-82
2021/01/19 03:47:41;;;;;;;45.92;23.87;;;;;;;2.14;62.33;100442.12;4459372;32;33953;-82
2021/01/19 03:50:09;;;;;;;45.35;23.65;;;;;;;1.82;63.38;100438.59;4470029;32;33766;-82
2021/01/19 03:52:37;;;;;;;45.55;23.75;;;;;;;1.95;63.20;100429.97;4469653;32;33558;-82
2021/01/19 03:55:06;;;;;;;45.47;23.75;;;;;;;2.21;62.24;100430.81;4464961;32;34159;-82
2021/01/19 03:57:34;;;;;;;49.53;24.25;;;;;;;2.03;62.98;100438.62;4478825;32;34362;-82
2021/01/19 04:00:07;;;;;;;50.50;23.55;;;;;;;2.04;63.25;100430.84;4469957;32;33843;-82
2021/01/19 04:02:39;;;;;;;43.25;22.80;;;;;;;1.97;63.67;100433.41;4463991;32;33622;-82
2021/01/19 04:05:07;;;;;;;46.03;23.45;;;;;;;1.93;64.17;100424.72;4462275;32;33314;-82
2021/01/19 04:07:42;;;;;;;47.45;24.40;;;;;;;2.24;62.88;100428.22;4448433;32;34958;-82
2021/01/19 04:10:12;;;;;;;48.38;24.27;;;;;;;2.37;62.48;100433.44;4463073;32;34600;-83
2021/01/19 04:12:40;;;;;;;42.92;23.42;;;;;;;2.48;62.30;100426.50;4457294;32;33523;-83
2021/01/19 04:15:09;;;;;;;45.45;23.15;;;;;;;2.44;62.62;100425.62;4473188;32;33188;-82
2021/01/19 04:17:38;;;;;;;41.08;21.65;;;;;;;2.12;63.86;100428.22;4451919;32;34424;-82
2021/01/19 04:20:07;;;;;;;43.20;21.73;;;;;;;2.34;63.31;100417.81;4461611;32;34566;-82
2021/01/19 04:22:34;;;;;;;46.22;23.45;;;;;;;2.61;62.69;100423.00;4464405;32;34284;-82
2021/01/19 04:25:06;;;;;;;42.42;22.50;;;;;;;2.38;63.72;100427.37;4460147;32;32934;-82
2021/01/19 04:27:33;;;;;;;49.27;23.67;;;;;;;2.52;63.31;100421.28;4462091;32;34459;-82
2021/01/19 04:30:07;;;;;;;44.67;23.02;;;;;;;2.11;64.64;100421.28;4477493;32;33863;-82
2021/01/19 04:32:37;;;;;;;44.75;22.35;;;;;;;2.11;65.13;100420.41;4464125;32;33544;-83
2021/01/19 04:35:05;;;;;;;47.25;23.25;;;;;;;1.94;65.73;100428.19;4463092;32;34269;-82
2021/01/19 04:37:33;;;;;;;47.35;23.15;;;;;;;2.01;65.49;100424.75;4463293;32;33313;-82
2021/01/19 04:40:04;;;;;;;46.63;24.75;;;;;;;2.19;65.04;100435.19;4466791;32;34705;-82
2021/01/19 04:42:36;;;;;;;44.47;23.60;;;;;;;2.17;65.11;100442.09;4464992;32;33800;-82
2021/01/19 04:45:08;;;;;;;47.03;23.55;;;;;;;2.17;65.22;100441.25;4464839;32;34139;-82
2021/01/19 04:47:37;;;;;;;51.53;24.50;;;;;;;2.00;65.79;100430.84;4464706;32;35479;-82
2021/01/19 04:50:07;;;;;;;46.83;24.23;;;;;;;1.92;66.21;100435.16;4460016;32;33856;-82
2021/01/19 04:52:41;;;;;;;51.40;25.37;;;;;;;2.12;65.60;100437.78;4462946;32;34838;-82
2021/01/19 04:55:10;;;;;;;43.55;23.08;;;;;;;2.17;65.77;100441.25;4460892;32;33305;-82
2021/01/19 04:57:39;;;;;;;48.35;24.85;;;;;;;2.18;65.74;100438.62;4476637;32;34499;-82
2021/01/19 05:00:15;;;;;;;47.95;25.33;;;;;;;2.35;65.22;100432.56;4448053;32;34232;-81
2021/01/19 05:03:00;;;;;;;41.22;22.15;;;;;;;2.25;65.62;100440.37;4456580;32;33243;-82
2021/01/19 05:05:37;;;;;;;49.38;24.50;;;;;;;2.42;64.96;100431.69;4475008;32;33033;-82
2021/01/19 05:08:17;;;;;;;56.30;27.20;;;;;;;2.53;64.56;100437.78;4483463;32;33790;-81
2021/01/19 05:10:54;;;;;;;50.55;25.25;;;;;;;2.28;65.59;100431.72;4481365;32;34697;-81
2021/01/19 05:13:43;;;;;;;47.25;25.88;;;;;;;2.37;65.36;100433.44;4475894;32;33547;-81
2021/01/19 05:16:16;;;;;;;59.80;27.55;;;;;;;2.60;64.56;100433.41;4478367;32;34190;-81
2021/01/19 05:18:44;;;;;;;50.78;26.05;;;;;;;2.53;64.87;100440.37;4457458;32;34751;-81
2021/01/19 05:21:12;;;;;;;50.65;26.87;;;;;;;2.42;65.44;100440.41;4479801;32;33869;-81
2021/01/19 05:23:40;;;;;;;54.97;27.75;;;;;;;2.36;65.89;100447.34;4462658;32;33907;-81
2021/01/19 05:26:09;;;;;;;52.55;27.13;;;;;;;2.48;65.58;100431.72;4463874;32;33181;-81
2021/01/19 05:28:41;;;;;;;48.05;26.70;;;;;;;2.48;65.68;100434.31;4460604;32;34341;-81
2021/01/19 05:31:14;;;;;;;52.58;27.62;;;;;;;2.47;65.77;100440.37;4452435;32;32585;-81
2021/01/19 05:33:42;;;;;;;55.97;29.00;;;;;;;2.68;65.07;100440.37;4469415;31;33060;-81
2021/01/19 05:36:11;;;;;;;55.30;29.52;;;;;;;2.85;64.51;100437.75;4458909;32;34146;-81
2021/01/19 05:38:55;;;;;;;55.47;29.23;;;;;;;2.63;65.32;100431.69;4472774;32;33577;-81
2021/01/19 05:41:38;;;;;;;53.92;29.48;;;;;;;2.81;64.87;100436.00;4476309;31;33735;-82
2021/01/19 05:44:19;;;;;;;56.40;29.12;;;;;;;2.96;64.26;100441.19;4455572;32;35406;-82
2021/01/19 05:46:50;;;;;;;52.72;27.35;;;;;;;2.77;65.08;100429.91;4450005;32;34222;-81
2021/01/19 05:49:24;;;;;;;58.65;29.23;;;;;;;2.79;65.03;100438.59;4474915;32;33579;-80
2021/01/19 05:52:05;;;;;;;53.15;29.77;;;;;;;2.59;65.67;100427.34;4457326;32;35823;-80
2021/01/19 05:54:34;;;;;;;56.53;30.02;;;;;;;2.61;65.60;100430.84;4474781;32;33207;-80
2021/01/19 05:57:08;;;;;;;51.05;26.98;;;;;;;2.70;65.30;100432.53;4460428;31;33262;-80
2021/01/19 05:59:43;;;;;;;46.25;25.83;;;;;;;2.63;65.32;100431.69;4473211;32;33437;-83
2021/01/19 06:02:14;;;;;;;49.75;27.40;;;;;;;2.81;64.75;100430.78;4453075;32;35829;-84
2021/01/19 06:04:49;;;;;;;46.40;24.70;;;;;;;2.78;64.64;100433.41;4462065;32;33420;-83
2021/01/19 06:07:20;;;;;;;52.65;26.95;;;;;;;3.01;63.80;100433.34;4460637;32;33212;-87
2021/01/19 06:09:48;;;;;;;52.03;26.05;;;;;;;2.92;64.08;100428.16;4454682;32;34137;-81
2021/01/19 06:12:16;;;;;;;49.22;27.25;;;;;;;2.73;64.49;100432.53;4470584;32;35150;-82
2021/01/19 06:14:48;;;;;;;52.88;27.13;;;;;;;2.77;64.44;100427.31;4461369;32;33246;-85
2021/01/19 06:17:23;;;;;;;57.75;27.83;;;;;;;2.76;64.54;100438.62;4464685;32;30938;-83
2021/01/19 06:19:52;;;;;;;55.50;26.75;;;;;;;2.69;64.45;100438.62;4467976;32;33080;-83
2021/01/19 06:22:25;;;;;;;50.33;26.25;;;;;;;2.70;64.17;100435.12;4461542;31;34166;-86
2021/01/19 06:24:55;;;;;;;55.78;26.52;;;;;;;2.53;64.24;100440.37;4471827;32;33277;-86
2021/01/19 06:27:23;;;;;;;56.10;27.52;;;;;;;2.53;64.17;100443.00;4475785;31;34886;-86
2021/01/19 06:30:11;;;;;;;68.65;33.15;;;;;;;2.44;64.12;100437.78;4477747;31;34430;-83
2021/01/19 06:32:46;;;;;;;66.07;33.90;;;;;;;2.34;64.75;100439.53;4485388;31;33555;-83
2021/01/19 06:35:40;;;;;;;;;;;;;;;;;;;;;
2021/01/19 06:38:08;;;;;;;66.68;31.27;;;;;;;1.92;66.78;100448.16;4470227;32;32292;-84
2021/01/19 06:40:36;;;;;;;59.00;29.42;;;;;;;2.26;65.95;100451.69;4464989;32;33953;-86
2021/01/19 06:43:04;;;;;;;67.85;33.17;;;;;;;2.39;65.68;100455.16;4460543;32;35458;-85
2021/01/19 06:45:33;;;;;;;57.30;31.05;;;;;;;2.46;65.24;100462.97;4465376;32;32685;-85
2021/01/19 06:48:02;;;;;;;60.65;30.60;;;;;;;2.60;65.04;100449.06;4448453;32;34309;-85
2021/01/19 06:50:34;;;;;;;57.20;30.08;;;;;;;2.70;64.74;100451.66;4460465;32;33945;-86
2021/01/19 06:53:40;;;;;;;52.30;27.60;;;;;;;2.79;64.43;100450.78;4462385;32;34826;-85
2021/01/19 06:56:07;;;;;;;53.38;27.35;;;;;;;2.70;64.64;100449.03;4463698;32;33403;-85
2021/01/19 06:58:49;;;;;;;53.00;27.27;;;;;;;2.70;64.87;100449.03;4475277;32;34527;-85
2021/01/19 07:01:18;;;;;;;56.13;28.50;;;;;;;2.68;65.13;100444.72;4461976;32;34651;-85
2021/01/19 07:03:47;;;;;;;60.45;28.62;;;;;;;2.67;65.35;100449.06;4460312;32;36273;-85
2021/01/19 07:06:16;;;;;;;60.55;30.62;;;;;;;2.56;65.99;100445.56;4465541;32;34106;-85
2021/01/19 07:09:08;;;;;;;63.25;31.77;;;;;;;2.37;66.59;100443.84;4464368;31;33304;-85
2021/01/19 07:11:36;;;;;;;;;;;;;;;2.78;65.63;100446.44;4479277;31;32836;-85
2021/01/19 07:14:14;;;;;;;54.00;25.80;;;;;;;2.73;66.00;100449.03;4468612;32;33381;-85
2021/01/19 07:16:54;;;;;;;62.15;29.90;;;;;;;2.97;65.35;100449.88;4463816;32;34410;-84
2021/01/19 07:19:46;;;;;;;70.03;33.10;;;;;;;2.93;65.44;100445.53;4462192;31;32105;-85
2021/01/19 07:22:51;;;;;;;71.03;31.15;;;;;;;3.03;65.30;100442.88;4457021;32;34202;-84
2021/01/19 07:25:29;;;;;;;63.33;32.33;;;;;;;2.97;65.62;100442.91;4472283;31;32888;-85
2021/01/19 07:28:00;;;;;;;63.40;31.62;;;;;;;3.13;65.27;100446.34;4460668;32;36470;-84
2021/01/19 07:30:28;;;;;;;60.85;31.83;;;;;;;3.15;65.33;100435.91;4476275;31;33264;-84
2021/01/19 07:32:56;;;;;;;64.95;29.12;;;;;;;3.15;65.37;100433.31;4457693;32;35955;-84
2021/01/19 07:35:25;;;;;;;61.78;30.55;;;;;;;3.33;64.87;100433.25;4456871;32;34661;-84
2021/01/19 07:38:06;;;;;;;61.90;29.50;;;;;;;3.28;65.21;100433.25;4465255;32;33444;-85
2021/01/19 07:40:44;;;;;;;59.83;28.90;;;;;;;3.47;65.09;100441.00;4450814;31;33876;-85
2021/01/19 07:43:16;;;;;;;64.78;28.35;;;;;;;3.43;65.37;100439.28;4466563;31;31824;-84
2021/01/19 07:45:55;;;;;;;61.47;28.25;;;;;;;3.38;65.99;100448.88;4462336;31;33970;-85
2021/01/19 07:48:34;;;;;;;55.88;25.33;;;;;;;3.54;65.63;100432.25;4463654;31;34191;-84
2021/01/19 07:51:15;;;;;;;64.60;27.87;;;;;;;3.57;65.78;100430.50;4473500;31;32909;-85
2021/01/19 07:53:49;;;;;;;41.85;21.85;;;;;;;3.52;65.96;100431.41;4464296;32;34299;-85
2021/01/19 07:56:23;;;;;;;37.75;19.58;;;;;;;3.83;65.22;100427.72;4446862;32;35942;-85
2021/01/19 07:58:52;;;;;;;43.53;21.02;;;;;;;3.86;65.47;100432.09;4476131;32;33782;-85
2021/01/19 08:01:31;;;;;;;38.25;18.20;;;;;;;3.76;65.91;100425.19;4474059;32;32685;-82
2021/01/19 08:04:12;;;;;;;40.50;18.55;;;;;;;3.84;65.75;100419.00;4465298;32;33449;-83
2021/01/19 08:06:42;;;;;;;36.58;19.12;;;;;;;3.97;65.77;100424.16;4478070;32;34207;-83
2021/01/19 08:09:11;;;;;;;29.42;16.52;;;;;;;3.91;66.16;100429.44;4462880;32;34886;-82
2021/01/19 08:11:40;;;;;;;32.45;16.67;;;;;;;4.10;65.81;100431.06;4457619;32;34261;-83
2021/01/19 08:14:14;;;;;;;32.97;16.60;;;;;;;4.05;65.86;100438.06;4462408;32;34407;-83
2021/01/19 08:16:46;;;;;;;34.85;15.70;;;;;;;4.25;65.49;100437.91;4463043;32;34757;-83
2021/01/19 08:19:15;;;;;;;31.85;16.42;;;;;;;4.40;64.96;100437.78;4465706;32;34980;-83
2021/01/19 08:21:50;;;;;;;30.17;16.25;;;;;;;4.43;64.94;100439.50;4479401;32;33101;-83
2021/01/19 08:24:22;;;;;;;32.78;17.02;;;;;;;4.20;65.67;100434.47;4466354;32;36080;-82
2021/01/19 08:26:50;;;;;;;36.27;17.10;;;;;;;4.33;65.30;100433.50;4466189;32;33455;-83
2021/01/19 08:29:30;;;;;;;34.80;16.80;;;;;;;4.19;65.81;100438.81;4464138;32;33555;-82
2021/01/19 08:31:59;;;;;;;28.10;14.07;;;;;;;4.54;65.03;100438.53;4462758;32;31905;-82
2021/01/19 08:34:29;;;;;;;36.28;15.57;;;;;;;4.52;65.08;100436.81;4458146;32;34286;-82
2021/01/19 08:36:57;;;;;;;32.08;15.63;;;;;;;4.46;65.35;100449.94;4462614;32;33574;-82
2021/01/19 08:39:24;;;;;;;30.17;14.63;;;;;;;4.33;65.82;100438.72;4477371;32;34289;-83
2021/01/19 08:41:54;;;;;;;28.02;14.70;;;;;;;4.54;65.07;100435.03;4476360;32;33241;-83
2021/01/19 08:44:32;;;;;;;26.90;15.27;;;;;;;4.75;64.53;100440.09;4474626;32;34412;-83
2021/01/19 08:47:00;;;;;;;29.30;15.48;;;;;;;4.52;65.34;100447.28;4458058;32;35627;-83
2021/01/19 08:49:34;;;;;;;31.98;17.20;;;;;;;4.48;65.42;100459.50;4464967;32;33655;-83
2021/01/19 08:52:05;;;;;;;28.65;15.07;;;;;;;4.46;65.72;100450.78;4465682;32;33547;-82
2021/01/19 08:54:34;;;;;;;24.02;13.20;;;;;;;4.65;65.15;100448.88;4467712;32;33220;-83
2021/01/19 08:57:01;;;;;;;24.67;14.20;;;;;;;4.70;65.25;100454.97;4461748;32;33592;-83
2021/01/19 08:59:52;;;;;;;25.25;12.68;;;;;;;4.77;65.07;100446.16;4465088;32;34338;-82
2021/01/19 09:02:19;;;;;;;20.48;11.50;;;;;;;4.85;64.83;100449.56;4476258;31;33265;-82
2021/01/19 09:04:47;;;;;;;21.02;11.50;;;;;;;5.03;64.41;100447.63;4463483;32;34080;-85
2021/01/19 09:07:14;;;;;;;20.40;12.13;;;;;;;5.01;64.38;100442.44;4478583;32;34725;-84
2021/01/19 09:09:46;;;;;;;19.80;11.48;;;;;;;5.07;64.32;100441.47;4462305;31;33454;-82
2021/01/19 09:12:20;;;;;;;19.05;11.27;;;;;;;5.19;64.10;100438.75;4449489;32;33914;-82
2021/01/19 09:14:50;;;;;;;21.52;11.10;;;;;;;4.86;65.19;100440.84;4462874;32;33685;-82
2021/01/19 09:17:27;;;;;;;26.50;11.85;;;;;;;4.84;65.38;100437.37;4458915;32;33784;-82
2021/01/19 09:20:08;;;;;;;16.60;10.48;;;;;;;4.87;65.52;100434.72;4455249;32;34095;-82
2021/01/19 09:22:36;;;;;;;20.10;12.10;;;;;;;4.90;65.35;100433.84;4461400;32;33150;-82
2021/01/19 09:25:04;;;;;;;21.70;10.18;;;;;;;4.85;64.83;100428.66;4460011;32;33332;-82
2021/01/19 09:27:32;;;;;;;17.95;10.30;;;;;;;5.16;63.75;100428.28;4461549;32;33102;-82
2021/01/19 09:30:11;;;;;;;19.95;10.60;;;;;;;4.61;64.52;100423.66;4462483;32;33685;-82
2021/01/19 09:32:43;;;;;;;21.95;11.48;;;;;;;4.84;63.63;100426.91;4467132;32;33868;-82
2021/01/19 09:35:14;;;;;;;24.30;12.63;;;;;;;5.14;63.20;100423.09;4478715;32;33717;-82
2021/01/19 09:37:42;;;;;;;19.92;11.57;;;;;;;5.18;63.13;100415.22;4462375;32;33256;-82
2021/01/19 09:40:09;;;;;;;23.05;12.02;;;;;;;4.97;63.39;100411.06;4475251;32;33721;-82
2021/01/19 09:42:39;;;;;;;34.60;20.55;;;;;;;4.17;65.37;100411.81;4461319;32;34509;-81
2021/01/19 09:45:10;;;;;;;33.95;21.75;;;;;;;4.15;65.51;100415.34;4461783;32;34078;-82
2021/01/19 09:47:40;;;;;;;32.58;18.40;;;;;;;4.46;64.89;100405.47;4461129;32;34684;-82
2021/01/19 09:50:12;;;;;;;23.27;13.85;;;;;;;4.46;64.29;100397.63;4462049;32;34427;-81
2021/01/19 09:52:45;;;;;;;28.85;16.33;;;;;;;4.41;63.93;100407.25;4461342;32;33579;-81
2021/01/19 09:55:14;;;;;;;;;;;;;;;4.20;64.81;100390.03;4476101;32;33345;-81
2021/01/19 09:57:41;;;;;;;24.92;14.57;;;;;;;4.15;64.92;100394.44;4461581;32;33677;-81
2021/01/19 10:00:10;;;;;;;33.72;18.85;;;;;;;4.64;63.21;100381.75;4477416;32;33283;-81
2021/01/19 10:02:39;;;;;;;28.55;16.20;;;;;;;4.57;63.58;100377.50;4462679;32;35261;-82
2021/01/19 10:05:07;;;;;;;27.83;17.08;;;;;;;4.92;62.29;100371.88;4463757;32;33876;-82
2021/01/19 10:07:34;;;;;;;25.73;15.75;;;;;;;4.78;62.70;100368.53;4462543;32;33337;-82
2021/01/19 10:10:07;;;;;;;34.65;17.83;;;;;;;5.03;61.75;100369.13;4451560;32;35001;-82
2021/01/19 10:12:39;;;;;;;34.20;19.08;;;;;;;5.02;62.03;100356.91;4475958;32;32847;-82
2021/01/19 10:15:08;;;;;;;33.75;19.62;;;;;;;4.87;62.49;100358.84;4461260;32;33563;-82
2021/01/19 10:17:36;;;;;;;34.10;18.75;;;;;;;4.60;62.65;100359.13;4474147;32;33465;-81
2021/01/19 10:20:15;;;;;;;33.42;20.75;;;;;;;4.85;62.42;100360.62;4461697;32;33556;-81
2021/01/19 10:22:45;;;;;;;61.37;32.10;;;;;;;4.18;63.82;100363.91;4472332;32;33084;-81
2021/01/19 10:25:25;;;;;;;405.90;176.25;;;;;;;3.67;66.67;100368.66;4459069;32;34193;-81
2021/01/19 10:28:00;;;;;;;322.30;142.95;;;;;;;3.75;66.05;100366.88;4475687;32;34008;-81
2021/01/19 10:30:42;;;;;;;358.40;166.10;;;;;;;4.67;63.84;100355.59;4460480;32;33557;-82
2021/01/19 10:33:25;;;;;;;47.58;26.73;;;;;;;4.76;62.80;100352.87;4462883;32;33986;-81
2021/01/19 10:35:52;;;;;;;32.05;20.08;;;;;;;4.43;63.65;100359.31;4465078;32;33579;-82
2021/01/19 10:38:26;;;;;;;53.50;30.80;;;;;;;4.30;64.05;100355.06;4465013;32;34830;-81
2021/01/19 10:40:53;;;;;;;39.72;25.92;;;;;;;4.76;63.27;100345.03;4462202;32;33522;-84
2021/01/19 10:43:21;;;;;;;43.72;23.12;;;;;;;4.56;63.09;100341.75;4448895;32;34392;-81
2021/01/19 10:45:48;;;;;;;36.58;22.08;;;;;;;4.60;63.39;100325.13;4475678;32;33345;-81
2021/01/19 10:48:20;;;;;;;41.40;23.90;;;;;;;4.65;62.99;100336.41;4474236;32;34318;-82
2021/01/19 10:50:49;;;;;;;42.95;24.45;;;;;;;4.45;64.08;100327.91;4460859;32;32983;-81
2021/01/19 10:53:27;;;;;;;38.88;21.75;;;;;;;4.63;63.53;100322.50;4460354;32;33252;-81
2021/01/19 10:55:55;;;;;;;34.25;20.70;;;;;;;4.59;63.40;100323.41;4459441;32;32257;-81
2021/01/19 10:58:22;;;;;;;34.55;19.12;;;;;;;4.52;63.34;100314.78;4474440;32;34715;-81
2021/01/19 11:00:49;;;;;;;39.83;20.60;;;;;;;4.23;64.29;100325.53;4465431;32;34591;-82
2021/01/19 11:03:17;;;;;;;36.35;20.92;;;;;;;4.21;64.57;100321.19;4459238;32;33946;-82
2021/01/19 11:05:45;;;;;;;38.08;22.37;;;;;;;4.22;64.09;100326.38;4460757;32;33782;-82
2021/01/19 11:08:12;;;;;;;37.95;21.45;;;;;;;3.57;66.08;100327.81;4464291;32;33723;-81
2021/01/19 11:10:40;;;;;;;44.15;23.25;;;;;;;4.11;64.88;100328.25;4476965;32;34551;-82
2021/01/19 11:13:08;;;;;;;40.45;22.30;;;;;;;3.90;65.07;100323.22;4472280;32;33043;-82
2021/01/19 11:15:35;;;;;;;43.42;23.83;;;;;;;3.75;65.59;100316.34;4465746;32;34448;-82
2021/01/19 11:18:02;;;;;;;38.72;21.37;;;;;;;4.00;65.72;100322.25;4461930;32;34755;-82
2021/01/19 11:20:30;;;;;;;40.30;24.92;;;;;;;3.71;65.81;100317.28;4470814;32;34716;-81
2021/01/19 11:22:57;;;;;;;60.05;36.65;;;;;;;4.12;65.08;100307.31;4459133;32;34109;-81
2021/01/19 11:25:25;;;;;;;85.82;49.05;;;;;;;4.41;64.39;100294.84;4478119;32;34450;-81
2021/01/19 11:27:52;;;;;;;55.85;34.53;;;;;;;4.98;61.83;100298.50;4460834;32;33360;-81
2021/01/19 11:30:19;;;;;;;60.10;34.50;;;;;;;4.62;62.29;100295.47;4461027;32;34167;-81
2021/01/19 11:32:47;;;;;;;40.90;24.63;;;;;;;4.94;62.04;100295.94;4474074;32;32882;-81
2021/01/19 11:35:15;;;;;;;48.92;29.25;;;;;;;5.45;59.88;100293.50;4475218;32;34350;-81
2021/01/19 11:37:42;;;;;;;36.95;20.92;;;;;;;5.77;59.39;100291.25;4472322;32;33699;-81
2021/01/19 11:40:10;;;;;;;32.17;19.17;;;;;;;5.74;57.69;100288.66;4474710;32;34253;-81